NO-0002 weather

Maarud
Hedmark, Norway

Public forecast

Using degrees Celsius for public forecast. Weather courtesy of forecast.io.

Closest aviation weather report (METAR) to Maarud

Closest report is Oslo Gardermoen Airport, 13.9 nm (25.7 km) W. Retrieved 2020/08/05 04:20 UTC (18 minutes ago):

ENGM 050420Z 17009KT 9999 FEW006 BKN010 12/10 Q1009 TEMPO RA FEW006 SCT010 BKN020

Closest aviation forecast (TAF) to Maarud

Closest forecast is Oslo Gardermoen Airport, 13.9 nm (25.7 km) W. Retrieved 2020-08-05 00:57 UTC (4 hours ago):

TAF ENGM 042300Z 0500/0524 19008KT CAVOK BECMG 0506/0508 RA BKN012 TEMPO 0508/0524 3000 -RADZ BR BKN004